createdAt,value
2022-08-17T00:00:14.688Z,8.68
2022-08-17T00:03:22.340Z,8.73
2022-08-17T00:05:56.853Z,8.98
2022-08-17T00:08:33.100Z,9.38
2022-08-17T00:11:01.215Z,8.85
2022-08-17T00:13:37.047Z,9.32
2022-08-17T00:16:14.677Z,8.50
2022-08-17T00:19:00.905Z,8.55
2022-08-17T00:21:49.178Z,9.13
2022-08-17T00:24:21.269Z,8.98
2022-08-17T00:26:48.217Z,9.43
2022-08-17T00:29:19.503Z,9.95
2022-08-17T00:31:48.531Z,8.90
2022-08-17T00:34:15.782Z,9.25
2022-08-17T00:36:42.614Z,9.55
2022-08-17T00:39:09.753Z,8.52
2022-08-17T00:41:36.802Z,9.60
2022-08-17T00:44:09.788Z,9.20
2022-08-17T00:46:43.912Z,9.57
2022-08-17T00:49:12.940Z,9.30
2022-08-17T00:51:48.690Z,9.18
2022-08-17T00:54:31.968Z,9.32
2022-08-17T00:57:11.354Z,8.15
2022-08-17T00:59:47.175Z,10.10
2022-08-17T01:02:41.667Z,9.57
2022-08-17T01:05:19.128Z,9.30
2022-08-17T01:07:48.354Z,9.18
2022-08-17T01:11:00.424Z,9.07
2022-08-17T01:13:04.660Z,9.10
2022-08-17T01:15:37.438Z,10.13
2022-08-17T01:18:11.648Z,9.90
2022-08-17T01:20:49.142Z,10.23
2022-08-17T01:23:20.516Z,9.15
2022-08-17T01:25:55.686Z,8.63
2022-08-17T01:28:52.539Z,9.27
2022-08-17T01:31:15.497Z,8.88
2022-08-17T01:33:42.664Z,9.15
2022-08-17T01:36:10.122Z,9.05
2022-08-17T01:38:39.164Z,8.90
2022-08-17T01:41:12.605Z,8.77
2022-08-17T01:44:00.764Z,8.70
2022-08-17T01:46:34.105Z,9.00
2022-08-17T01:49:06.340Z,9.75
2022-08-17T01:51:33.922Z,8.52
2022-08-17T01:54:06.170Z,8.23
2022-08-17T01:56:35.737Z,8.57
2022-08-17T01:59:03.297Z,8.40
2022-08-17T02:01:33.733Z,9.00
2022-08-17T02:04:01.891Z,8.77
2022-08-17T02:06:45.097Z,8.88
2022-08-17T02:09:23.984Z,8.00
2022-08-17T02:11:56.409Z,8.68
2022-08-17T02:14:24.904Z,9.00
2022-08-17T02:16:53.227Z,9.18
2022-08-17T02:19:20.570Z,9.75
2022-08-17T02:21:52.217Z,9.48
2022-08-17T02:24:59.778Z,9.55
2022-08-17T02:27:22.368Z,9.18
2022-08-17T02:29:49.392Z,8.65
2022-08-17T02:32:28.203Z,9.82
2022-08-17T02:34:58.096Z,9.57
2022-08-17T02:37:26.821Z,8.60
2022-08-17T02:39:56.815Z,9.02
2022-08-17T02:42:38.225Z,9.30
2022-08-17T02:45:15.918Z,9.25
2022-08-17T02:47:44.191Z,8.57
2022-08-17T02:50:14.521Z,9.05
2022-08-17T02:52:44.632Z,8.95
2022-08-17T02:55:28.481Z,9.45
2022-08-17T02:57:56.222Z,9.10
2022-08-17T03:00:28.925Z,9.00
2022-08-17T03:02:57.606Z,9.43
2022-08-17T03:05:28.150Z,9.00
2022-08-17T03:07:55.466Z,8.60
2022-08-17T03:10:24.498Z,9.27
2022-08-17T03:12:53.177Z,10.20
2022-08-17T03:15:31.429Z,9.82
2022-08-17T03:17:59.753Z,8.98
2022-08-17T03:20:30.070Z,9.63
2022-08-17T03:23:01.845Z,9.55
2022-08-17T03:25:42.782Z,8.95
2022-08-17T03:28:12.206Z,8.70
2022-08-17T03:30:40.388Z,8.60
2022-08-17T03:33:10.074Z,9.60
2022-08-17T03:35:40.638Z,8.63
2022-08-17T03:38:10.742Z,9.45
2022-08-17T03:40:58.625Z,8.95
2022-08-17T03:43:29.848Z,8.68
2022-08-17T03:46:28.917Z,9.75
2022-08-17T03:49:25.694Z,8.70
2022-08-17T03:52:13.900Z,8.85
2022-08-17T03:55:00.779Z,9.05
2022-08-17T03:59:55.916Z,8.85
2022-08-17T04:02:27.469Z,8.88
2022-08-17T04:04:54.644Z,9.98
2022-08-17T04:07:25.483Z,8.98
2022-08-17T04:09:52.527Z,8.93
2022-08-17T04:12:22.941Z,9.68
2022-08-17T04:14:53.307Z,9.38
2022-08-17T04:17:28.796Z,9.30
2022-08-17T04:19:56.053Z,9.75
2022-08-17T04:22:31.024Z,9.13
2022-08-17T04:25:15.750Z,9.32
2022-08-17T04:27:42.664Z,8.88
2022-08-17T04:30:10.904Z,9.52
2022-08-17T04:33:07.317Z,9.32
2022-08-17T04:35:43.074Z,8.35
2022-08-17T04:38:14.686Z,8.88
2022-08-17T04:41:00.486Z,9.45
2022-08-17T04:43:29.327Z,9.27
2022-08-17T04:46:04.856Z,8.98
2022-08-17T04:48:40.692Z,10.10
2022-08-17T04:51:23.319Z,9.10
2022-08-17T04:53:54.876Z,9.85
2022-08-17T04:56:25.739Z,9.85
2022-08-17T04:58:58.181Z,10.75
2022-08-17T05:01:28.134Z,9.75
2022-08-17T05:03:59.103Z,9.65
2022-08-17T05:06:28.738Z,8.82
2022-08-17T05:08:57.832Z,10.07
2022-08-17T05:11:27.343Z,9.57
2022-08-17T05:13:55.964Z,9.52
2022-08-17T05:16:25.530Z,9.80
2022-08-17T05:18:53.010Z,10.02
2022-08-17T05:21:22.863Z,9.93
2022-08-17T05:23:54.950Z,10.02
2022-08-17T05:26:26.110Z,9.45
2022-08-17T05:29:02.949Z,9.50
2022-08-17T05:31:31.361Z,9.70
2022-08-17T05:33:58.606Z,10.25
2022-08-17T05:36:42.199Z,9.48
2022-08-17T05:39:16.584Z,9.38
2022-08-17T05:42:09.499Z,9.30
2022-08-17T05:44:36.538Z,9.18
2022-08-17T05:47:05.863Z,9.23
2022-08-17T05:49:37.236Z,9.93
2022-08-17T05:52:43.437Z,9.30
2022-08-17T05:55:38.334Z,9.55
2022-08-17T05:58:33.493Z,9.38
2022-08-17T06:01:10.498Z,8.82
2022-08-17T06:03:58.277Z,9.23
2022-08-17T06:06:40.370Z,8.98
2022-08-17T06:09:33.858Z,8.30
2022-08-17T06:12:52.312Z,8.43
2022-08-17T06:15:56.749Z,7.50
2022-08-17T06:18:29.892Z,7.70
2022-08-17T06:21:07.526Z,7.25
2022-08-17T06:23:39.636Z,7.97
2022-08-17T06:26:16.572Z,8.20
2022-08-17T06:29:04.630Z,7.22
2022-08-17T06:31:38.518Z,8.02
2022-08-17T06:34:11.678Z,7.65
2022-08-17T06:37:07.431Z,7.88
2022-08-17T06:39:59.098Z,7.47
2022-08-17T06:43:06.769Z,7.63
2022-08-17T06:46:07.053Z,7.90
2022-08-17T06:48:47.431Z,7.20
2022-08-17T06:51:40.619Z,6.38
2022-08-17T06:54:32.775Z,6.03
2022-08-17T06:57:25.177Z,6.45
2022-08-17T07:00:28.731Z,6.57
2022-08-17T07:03:32.202Z,6.05
2022-08-17T07:06:21.558Z,5.65
2022-08-17T07:09:09.277Z,6.03
2022-08-17T07:12:10.513Z,5.70
2022-08-17T07:14:53.299Z,5.43
2022-08-17T07:17:47.699Z,6.22
2022-08-17T07:20:17.658Z,5.88
2022-08-17T07:23:08.754Z,5.80
2022-08-17T07:25:35.751Z,5.32
2022-08-17T07:28:07.772Z,5.63
2022-08-17T07:30:52.111Z,5.85
2022-08-17T07:33:36.954Z,5.63
2022-08-17T07:36:04.550Z,5.15
2022-08-17T07:38:35.726Z,5.88
2022-08-17T07:41:08.459Z,5.80
2022-08-17T07:43:41.674Z,5.13
2022-08-17T07:46:29.934Z,4.85
2022-08-17T07:49:34.314Z,5.13
2022-08-17T07:52:48.436Z,4.95
2022-08-17T07:54:57.693Z,4.67
2022-08-17T07:57:32.765Z,4.55
2022-08-17T08:00:03.168Z,4.65
2022-08-17T08:02:47.772Z,4.22
2022-08-17T08:05:49.330Z,4.45
2022-08-17T08:08:21.549Z,4.05
2022-08-17T08:11:07.869Z,3.63
2022-08-17T08:16:24.679Z,3.67
2022-08-17T08:19:00.328Z,5.22
2022-08-17T08:21:58.970Z,4.35
2022-08-17T08:24:57.914Z,3.33
2022-08-17T08:28:01.499Z,3.42
2022-08-17T08:30:29.930Z,3.13
2022-08-17T08:33:17.104Z,3.28
2022-08-17T08:35:53.711Z,3.55
2022-08-17T08:38:49.605Z,3.30
2022-08-17T08:41:36.891Z,3.25
2022-08-17T08:45:00.851Z,3.58
2022-08-17T08:47:42.206Z,3.30
2022-08-17T08:50:43.546Z,3.10
2022-08-17T08:53:34.878Z,3.10
2022-08-17T08:56:29.418Z,2.55
2022-08-17T08:59:23.506Z,3.30
2022-08-17T09:02:10.216Z,2.80
2022-08-17T09:05:14.272Z,2.60
2022-08-17T09:08:25.687Z,2.72
2022-08-17T09:11:06.415Z,2.65
2022-08-17T09:14:00.696Z,2.65
2022-08-17T09:16:36.177Z,2.65
2022-08-17T09:19:34.415Z,2.72
2022-08-17T09:22:21.841Z,2.85
2022-08-17T09:25:03.232Z,2.95
2022-08-17T09:27:51.429Z,2.67
2022-08-17T09:30:20.273Z,2.45
2022-08-17T09:32:56.054Z,2.55
2022-08-17T09:35:36.940Z,2.47
2022-08-17T09:38:33.422Z,2.38
2022-08-17T09:41:19.561Z,2.58
2022-08-17T09:44:31.174Z,2.70
2022-08-17T09:47:12.762Z,2.53
2022-08-17T09:49:50.588Z,2.60
2022-08-17T09:52:28.618Z,2.50
2022-08-17T09:54:58.329Z,2.30
2022-08-17T09:58:00.976Z,2.70
2022-08-17T10:00:36.273Z,2.60
2022-08-17T10:03:45.993Z,2.70
2022-08-17T10:06:24.806Z,2.67
2022-08-17T10:09:16.620Z,2.65
2022-08-17T10:12:46.495Z,3.85
2022-08-17T10:18:21.796Z,2.63
2022-08-17T10:21:31.352Z,2.45
2022-08-17T10:25:02.059Z,2.40
2022-08-17T10:27:52.973Z,2.40
2022-08-17T10:30:28.370Z,2.65
2022-08-17T10:33:04.287Z,2.53
2022-08-17T10:35:53.786Z,2.72
2022-08-17T10:38:47.353Z,2.58
2022-08-17T10:41:41.430Z,2.70
2022-08-17T10:44:36.984Z,2.50
2022-08-17T10:47:16.445Z,2.53
2022-08-17T10:49:54.013Z,2.50
2022-08-17T10:52:22.024Z,2.70
2022-08-17T10:54:51.929Z,2.90
2022-08-17T10:57:34.115Z,2.85
2022-08-17T11:00:41.594Z,2.83
2022-08-17T11:03:23.468Z,2.88
2022-08-17T11:06:28.169Z,3.00
2022-08-17T11:09:20.126Z,2.67
2022-08-17T11:12:20.725Z,3.10
2022-08-17T11:15:02.905Z,2.50
2022-08-17T11:17:53.523Z,2.55
2022-08-17T11:20:49.882Z,2.50
2022-08-17T11:24:03.166Z,2.90
2022-08-17T11:26:35.572Z,2.53
2022-08-17T11:29:15.697Z,2.80
2022-08-17T11:32:00.803Z,2.63
2022-08-17T11:34:30.903Z,2.80
2022-08-17T11:37:25.807Z,2.80
2022-08-17T11:40:33.033Z,2.33
2022-08-17T11:44:02.803Z,3.00
2022-08-17T11:47:18.424Z,2.40
2022-08-17T11:50:29.112Z,2.55
2022-08-17T11:52:56.177Z,2.30
2022-08-17T11:55:35.670Z,2.40
2022-08-17T11:58:29.303Z,2.40
2022-08-17T12:00:59.752Z,2.30
2022-08-17T12:03:55.605Z,2.40
2022-08-17T12:06:58.570Z,2.20
2022-08-17T12:09:30.961Z,2.53
2022-08-17T12:12:21.400Z,2.13
2022-08-17T12:15:11.522Z,2.22
2022-08-17T12:17:42.620Z,2.30
2022-08-17T12:20:28.100Z,2.83
2022-08-17T12:26:01.337Z,2.08
2022-08-17T12:28:36.089Z,1.92
2022-08-17T12:33:37.466Z,2.33
2022-08-17T12:36:08.788Z,2.40
2022-08-17T12:38:37.990Z,2.50
2022-08-17T12:41:31.726Z,2.40
2022-08-17T12:44:03.225Z,2.25
2022-08-17T12:47:04.821Z,2.20
2022-08-17T12:49:39.294Z,2.20
2022-08-17T12:52:25.463Z,2.60
2022-08-17T12:55:02.925Z,2.33
2022-08-17T12:57:35.734Z,2.20
2022-08-17T13:00:29.908Z,2.42
2022-08-17T13:03:07.978Z,2.47
2022-08-17T13:05:55.623Z,2.42
2022-08-17T13:08:36.451Z,2.42
2022-08-17T13:11:24.053Z,2.90
2022-08-17T13:13:56.435Z,2.78
2022-08-17T13:16:30.871Z,2.50
2022-08-17T13:19:20.343Z,2.35
2022-08-17T13:22:12.678Z,2.53
2022-08-17T13:24:53.274Z,2.60
2022-08-17T13:27:23.398Z,2.35
2022-08-17T13:29:59.515Z,2.50
2022-08-17T13:32:46.338Z,2.83
2022-08-17T13:35:44.208Z,2.50
2022-08-17T13:38:49.567Z,2.20
2022-08-17T13:41:35.306Z,2.35
2022-08-17T13:44:04.161Z,2.35
2022-08-17T13:46:33.250Z,2.50
2022-08-17T13:49:03.518Z,2.60
2022-08-17T13:51:50.276Z,2.70
2022-08-17T13:54:42.671Z,2.33
2022-08-17T13:57:25.431Z,2.55
2022-08-17T14:00:07.260Z,2.25
2022-08-17T14:02:35.128Z,2.20
2022-08-17T14:05:02.028Z,2.60
2022-08-17T14:07:39.890Z,2.42
2022-08-17T14:10:15.355Z,2.60
2022-08-17T14:12:44.654Z,2.58
2022-08-17T14:15:15.794Z,2.45
2022-08-17T14:17:42.806Z,2.50
2022-08-17T14:20:12.310Z,3.15
2022-08-17T14:22:45.113Z,2.55
2022-08-17T14:25:16.072Z,2.85
2022-08-17T14:27:52.442Z,2.47
2022-08-17T14:30:26.738Z,2.47
2022-08-17T14:35:27.584Z,2.50
2022-08-17T14:37:55.010Z,2.35
2022-08-17T14:40:29.867Z,2.50
2022-08-17T14:42:57.688Z,2.20
2022-08-17T14:45:29.871Z,2.40
2022-08-17T14:48:03.972Z,2.75
2022-08-17T14:50:31.712Z,2.97
2022-08-17T14:52:59.245Z,2.33
2022-08-17T14:55:29.768Z,2.75
2022-08-17T14:57:56.873Z,2.75
2022-08-17T15:00:24.023Z,2.63
2022-08-17T15:02:58.307Z,2.63
2022-08-17T15:05:32.419Z,2.33
2022-08-17T15:08:04.712Z,2.70
2022-08-17T15:10:32.810Z,2.72
2022-08-17T15:13:00.546Z,2.63
2022-08-17T15:15:28.711Z,2.85
2022-08-17T15:17:56.144Z,2.80
2022-08-17T15:20:28.221Z,2.80
2022-08-17T15:22:57.316Z,3.00
2022-08-17T15:25:27.644Z,2.40
2022-08-17T15:27:55.887Z,2.97
2022-08-17T15:30:24.490Z,2.78
2022-08-17T15:32:55.207Z,2.65
2022-08-17T15:35:29.734Z,3.25
2022-08-17T15:38:10.706Z,3.00
2022-08-17T15:40:44.241Z,2.75
2022-08-17T15:43:28.334Z,2.90
2022-08-17T15:46:10.359Z,2.83
2022-08-17T15:48:41.912Z,3.30
2022-08-17T15:51:31.797Z,4.75
2022-08-17T15:54:19.298Z,3.53
2022-08-17T15:56:49.607Z,3.35
2022-08-17T15:59:16.696Z,2.65
2022-08-17T16:03:01.563Z,2.80
2022-08-17T16:04:31.622Z,3.13
2022-08-17T16:07:00.432Z,3.90
2022-08-17T16:09:27.667Z,2.97
2022-08-17T16:11:56.068Z,3.42
2022-08-17T16:14:32.342Z,2.90
2022-08-17T16:17:03.517Z,2.80
2022-08-17T16:19:30.776Z,3.28
2022-08-17T16:21:57.763Z,3.53
2022-08-17T16:24:25.251Z,10.48
2022-08-17T16:26:52.218Z,23.73
2022-08-17T16:29:19.401Z,9.13
2022-08-17T16:31:46.341Z,4.63
2022-08-17T16:34:18.000Z,3.78
2022-08-17T16:36:55.636Z,7.57
2022-08-17T16:39:29.454Z,3.45
2022-08-17T16:41:57.409Z,4.53
2022-08-17T16:44:29.072Z,3.28
2022-08-17T16:46:57.330Z,3.10
2022-08-17T16:49:35.952Z,3.30
2022-08-17T16:52:12.730Z,3.63
2022-08-17T16:54:44.425Z,3.13
2022-08-17T16:57:13.866Z,3.55
2022-08-17T16:59:45.028Z,3.25
2022-08-17T17:02:25.119Z,3.08
2022-08-17T17:05:19.431Z,3.30
2022-08-17T17:08:07.937Z,3.00
2022-08-17T17:10:43.783Z,3.70
2022-08-17T17:16:26.687Z,3.95
2022-08-17T17:19:16.585Z,3.42
2022-08-17T17:22:23.391Z,3.83
2022-08-17T17:25:27.473Z,4.07
2022-08-17T17:28:14.504Z,3.60
2022-08-17T17:31:18.917Z,6.85
2022-08-17T17:34:04.937Z,5.70
2022-08-17T17:36:54.401Z,5.32
2022-08-17T17:39:41.320Z,4.40
2022-08-17T17:42:16.688Z,5.03
2022-08-17T17:45:03.997Z,4.55
2022-08-17T17:47:32.281Z,4.20
2022-08-17T17:50:01.934Z,4.43
2022-08-17T17:53:02.113Z,4.13
2022-08-17T17:56:00.192Z,4.55
2022-08-17T17:58:54.641Z,16.80
2022-08-17T18:01:34.204Z,20.70
2022-08-17T18:04:27.774Z,14.93
2022-08-17T18:07:12.195Z,10.60
2022-08-17T18:09:53.628Z,6.20
2022-08-17T18:12:43.966Z,4.57
2022-08-17T18:15:25.479Z,4.07
2022-08-17T18:18:14.519Z,3.90
2022-08-17T18:20:53.134Z,4.18
2022-08-17T18:23:27.679Z,4.30
2022-08-17T18:25:58.640Z,4.00
2022-08-17T18:28:39.700Z,4.68
2022-08-17T18:31:12.571Z,3.90
2022-08-17T18:33:44.518Z,4.10
2022-08-17T18:36:12.613Z,4.03
2022-08-17T18:38:42.806Z,4.80
2022-08-17T18:41:30.526Z,8.07
2022-08-17T18:44:32.703Z,7.57
2022-08-17T18:47:28.848Z,11.65
2022-08-17T18:50:00.606Z,9.85
2022-08-17T18:52:33.645Z,9.15
2022-08-17T18:55:16.257Z,6.20
2022-08-17T18:57:47.798Z,5.22
2022-08-17T19:00:35.920Z,5.05
2022-08-17T19:03:22.633Z,4.78
2022-08-17T19:05:57.398Z,4.30
2022-08-17T19:08:30.436Z,6.63
2022-08-17T19:11:22.461Z,13.13
2022-08-17T19:14:16.600Z,6.53
2022-08-17T19:17:00.794Z,6.35
2022-08-17T19:19:45.786Z,9.40
2022-08-17T19:22:31.028Z,6.20
2022-08-17T19:25:12.222Z,5.15
2022-08-17T19:28:25.682Z,5.18
2022-08-17T19:31:04.993Z,5.57
2022-08-17T19:33:32.578Z,4.88
2022-08-17T19:36:08.677Z,4.65
2022-08-17T19:39:13.881Z,4.65
2022-08-17T19:41:48.480Z,4.97
2022-08-17T19:44:49.086Z,4.50
2022-08-17T19:47:53.638Z,4.32
2022-08-17T19:50:41.764Z,4.78
2022-08-17T19:54:03.822Z,4.55
2022-08-17T19:56:40.990Z,4.65
2022-08-17T19:59:50.019Z,4.55
2022-08-17T20:02:57.514Z,4.45
2022-08-17T20:05:30.906Z,4.80
2022-08-17T20:08:17.733Z,4.72
2022-08-17T20:11:07.285Z,9.15
2022-08-17T20:13:48.947Z,5.90
2022-08-17T20:16:18.782Z,5.47
2022-08-17T20:19:09.845Z,5.38
2022-08-17T20:21:39.536Z,5.03
2022-08-17T20:24:28.243Z,4.80
2022-08-17T20:27:14.229Z,4.90
2022-08-17T20:30:13.198Z,5.05
2022-08-17T20:32:56.664Z,4.57
2022-08-17T20:35:39.012Z,5.75
2022-08-17T20:38:14.159Z,4.90
2022-08-17T20:41:04.057Z,5.05
2022-08-17T20:43:34.378Z,11.50
2022-08-17T20:46:38.266Z,8.50
2022-08-17T20:49:15.780Z,5.97
2022-08-17T20:52:01.797Z,4.90
2022-08-17T20:54:52.644Z,4.95
2022-08-17T20:57:32.199Z,5.22
2022-08-17T21:00:15.002Z,5.80
2022-08-17T21:02:50.654Z,5.55
2022-08-17T21:06:15.371Z,5.65
2022-08-17T21:08:58.962Z,5.28
2022-08-17T21:11:57.173Z,5.40
2022-08-17T21:14:41.303Z,5.80
2022-08-17T21:17:49.890Z,5.65
2022-08-17T21:20:41.944Z,5.55
2022-08-17T21:23:20.608Z,5.07
2022-08-17T21:26:05.938Z,5.05
2022-08-17T21:29:29.650Z,5.75
2022-08-17T21:32:05.429Z,5.80
2022-08-17T21:34:43.314Z,5.32
2022-08-17T21:37:18.973Z,5.95
2022-08-17T21:40:10.247Z,5.03
2022-08-17T21:42:49.113Z,5.15
2022-08-17T21:45:38.847Z,5.20
2022-08-17T21:48:24.342Z,5.18
2022-08-17T21:51:28.702Z,4.68
2022-08-17T21:54:14.746Z,5.35
2022-08-17T21:56:47.566Z,5.05
2022-08-17T21:59:32.165Z,5.65
2022-08-17T22:02:16.997Z,5.50
2022-08-17T22:04:58.617Z,5.35
2022-08-17T22:07:51.072Z,5.65
2022-08-17T22:10:42.090Z,5.57
2022-08-17T22:13:24.476Z,6.05
2022-08-17T22:16:27.754Z,5.57
2022-08-17T22:18:58.979Z,7.10
2022-08-17T22:21:26.790Z,20.75
2022-08-17T22:24:15.256Z,13.02
2022-08-17T22:27:11.088Z,7.30
2022-08-17T22:29:44.768Z,5.75
2022-08-17T22:32:41.635Z,6.00
2022-08-17T22:35:32.421Z,6.15
2022-08-17T22:38:18.551Z,5.55
2022-08-17T22:40:52.336Z,6.10
2022-08-17T22:43:26.660Z,5.70
2022-08-17T22:45:59.333Z,6.00
2022-08-17T22:48:29.373Z,6.20
2022-08-17T22:51:15.356Z,6.00
2022-08-17T22:54:11.423Z,5.53
2022-08-17T22:57:06.559Z,6.18
2022-08-17T22:59:51.223Z,6.63
2022-08-17T23:02:31.971Z,6.45
2022-08-17T23:05:13.997Z,6.03
2022-08-17T23:07:42.431Z,6.55
2022-08-17T23:10:12.189Z,6.90
2022-08-17T23:12:39.793Z,6.05
2022-08-17T23:15:32.882Z,6.47
2022-08-17T23:18:05.071Z,6.05
2022-08-17T23:20:36.433Z,6.65
2022-08-17T23:23:06.805Z,6.40
2022-08-17T23:25:35.408Z,6.38
2022-08-17T23:28:05.757Z,6.90
2022-08-17T23:30:39.378Z,7.05
2022-08-17T23:33:25.547Z,7.10
2022-08-17T23:35:54.081Z,6.40
2022-08-17T23:38:22.070Z,6.10
2022-08-17T23:40:49.401Z,6.53
2022-08-17T23:43:23.551Z,6.60
2022-08-17T23:45:59.531Z,6.53
2022-08-17T23:48:35.690Z,6.57
2022-08-17T23:51:20.278Z,6.95
2022-08-17T23:53:51.789Z,6.28
2022-08-17T23:56:24.808Z,6.93
2022-08-17T23:58:54.988Z,6.75
